Archival Weather

Randolph Afb

Universal City, Texas (KRND)

Report from: Monday, September 26, 2022 3:55 AM CDT
Current time: Saturday, February 4, 2023 10:15 PM CST

Current weather
Weather history
Weather forecast

Temperature24.8°C (76.6°F)
Dew point21.5°C (70.7°F)
Winds 4 kts (2.1 m/s, 4.6 mph) West (260°)
Visibility10 mi. (16.1 km)
Clouds Sky clear
Altimeter29.96 in.Hg (1015 mB)
Relative humidity82 %
Density altitude1,437 ft. (438 m)
Sea-level pressure101.4 kPa (1014 mB, 29.93 in.Hg)
Remarks Fully automated report
Automated weather observing station with precipitation discriminator
Pressure falling, then rising
Flight conditions Visual Meteorological Conditions
Raw dataKRND 260855Z AUTO 26004KT 10SM CLR 25/22 A2996 RMK AO2 SLP135 T02480215 55007
An unhandled exception has occurred. See browser dev tools for details. Reload 🗙